sensor_id;sensor_type;location;lat;lon;timestamp;P1;durP1;ratioP1;P2;durP2;ratioP2
9722;SDS011;4900;49.306;8.500;2022-08-02T00:02:17;5.32;;;4.03;;
9722;SDS011;4900;49.306;8.500;2022-08-02T00:05:20;5.25;;;4.20;;
9722;SDS011;4900;49.306;8.500;2022-08-02T00:08:23;5.68;;;5.10;;
9722;SDS011;4900;49.306;8.500;2022-08-02T00:11:26;5.88;;;4.50;;
9722;SDS011;4900;49.306;8.500;2022-08-02T00:14:30;5.72;;;4.50;;
9722;SDS011;4900;49.306;8.500;2022-08-02T00:17:33;5.22;;;4.45;;
9722;SDS011;4900;49.306;8.500;2022-08-02T00:20:36;6.32;;;4.80;;
9722;SDS011;4900;49.306;8.500;2022-08-02T00:23:40;5.30;;;4.80;;
9722;SDS011;4900;49.306;8.500;2022-08-02T00:26:43;4.63;;;4.22;;
9722;SDS011;4900;49.306;8.500;2022-08-02T00:29:47;5.82;;;4.70;;
9722;SDS011;4900;49.306;8.500;2022-08-02T00:32:52;4.88;;;4.35;;
9722;SDS011;4900;49.306;8.500;2022-08-02T00:35:56;5.95;;;4.57;;
9722;SDS011;4900;49.306;8.500;2022-08-02T00:38:59;5.25;;;4.75;;
9722;SDS011;4900;49.306;8.500;2022-08-02T00:42:03;6.28;;;4.93;;
9722;SDS011;4900;49.306;8.500;2022-08-02T00:45:06;4.90;;;4.22;;
9722;SDS011;4900;49.306;8.500;2022-08-02T00:48:11;6.30;;;5.03;;
9722;SDS011;4900;49.306;8.500;2022-08-02T00:51:15;5.25;;;4.72;;
9722;SDS011;4900;49.306;8.500;2022-08-02T00:54:19;6.03;;;5.07;;
9722;SDS011;4900;49.306;8.500;2022-08-02T00:57:23;6.78;;;4.90;;
9722;SDS011;4900;49.306;8.500;2022-08-02T01:00:26;5.07;;;4.55;;
9722;SDS011;4900;49.306;8.500;2022-08-02T01:03:29;5.57;;;4.60;;
9722;SDS011;4900;49.306;8.500;2022-08-02T01:06:33;5.95;;;4.75;;
9722;SDS011;4900;49.306;8.500;2022-08-02T01:09:36;9.27;;;5.38;;
9722;SDS011;4900;49.306;8.500;2022-08-02T01:12:39;8.20;;;5.28;;
9722;SDS011;4900;49.306;8.500;2022-08-02T01:15:44;5.97;;;4.95;;
9722;SDS011;4900;49.306;8.500;2022-08-02T01:19:01;6.18;;;4.60;;
9722;SDS011;4900;49.306;8.500;2022-08-02T01:22:17;5.25;;;4.75;;
9722;SDS011;4900;49.306;8.500;2022-08-02T01:28:50;6.50;;;5.03;;
9722;SDS011;4900;49.306;8.500;2022-08-02T01:35:19;5.10;;;4.55;;
9722;SDS011;4900;49.306;8.500;2022-08-02T01:38:30;7.13;;;4.40;;
9722;SDS011;4900;49.306;8.500;2022-08-02T01:41:36;6.45;;;4.78;;
9722;SDS011;4900;49.306;8.500;2022-08-02T01:44:41;5.22;;;4.72;;
9722;SDS011;4900;49.306;8.500;2022-08-02T01:47:46;4.85;;;4.38;;
9722;SDS011;4900;49.306;8.500;2022-08-02T01:50:51;4.90;;;4.40;;
9722;SDS011;4900;49.306;8.500;2022-08-02T01:53:56;5.95;;;4.05;;
9722;SDS011;4900;49.306;8.500;2022-08-02T01:57:00;6.07;;;4.28;;
9722;SDS011;4900;49.306;8.500;2022-08-02T02:00:07;6.40;;;4.50;;
9722;SDS011;4900;49.306;8.500;2022-08-02T02:03:13;6.80;;;4.50;;
9722;SDS011;4900;49.306;8.500;2022-08-02T02:06:23;4.90;;;4.40;;
9722;SDS011;4900;49.306;8.500;2022-08-02T02:09:28;4.65;;;4.18;;
9722;SDS011;4900;49.306;8.500;2022-08-02T02:12:33;4.13;;;3.83;;
9722;SDS011;4900;49.306;8.500;2022-08-02T02:15:39;5.13;;;4.53;;
9722;SDS011;4900;49.306;8.500;2022-08-02T02:18:46;6.38;;;4.80;;
9722;SDS011;4900;49.306;8.500;2022-08-02T02:21:50;5.75;;;4.43;;
9722;SDS011;4900;49.306;8.500;2022-08-02T02:24:54;5.95;;;4.50;;
9722;SDS011;4900;49.306;8.500;2022-08-02T02:27:59;5.70;;;4.75;;
9722;SDS011;4900;49.306;8.500;2022-08-02T02:31:06;4.97;;;4.47;;
9722;SDS011;4900;49.306;8.500;2022-08-02T02:34:16;5.32;;;4.40;;
9722;SDS011;4900;49.306;8.500;2022-08-02T02:37:25;5.20;;;4.15;;
9722;SDS011;4900;49.306;8.500;2022-08-02T02:40:30;6.20;;;5.60;;
9722;SDS011;4900;49.306;8.500;2022-08-02T02:43:35;6.75;;;5.32;;
9722;SDS011;4900;49.306;8.500;2022-08-02T02:46:40;4.93;;;4.38;;
9722;SDS011;4900;49.306;8.500;2022-08-02T02:49:45;6.60;;;4.90;;
9722;SDS011;4900;49.306;8.500;2022-08-02T02:52:52;7.63;;;4.88;;
9722;SDS011;4900;49.306;8.500;2022-08-02T02:55:56;5.22;;;4.55;;
9722;SDS011;4900;49.306;8.500;2022-08-02T02:59:00;4.78;;;4.38;;
9722;SDS011;4900;49.306;8.500;2022-08-02T03:02:04;5.15;;;4.50;;
9722;SDS011;4900;49.306;8.500;2022-08-02T03:05:09;6.18;;;4.20;;
9722;SDS011;4900;49.306;8.500;2022-08-02T03:08:13;4.82;;;4.38;;
9722;SDS011;4900;49.306;8.500;2022-08-02T03:11:17;6.57;;;4.88;;
9722;SDS011;4900;49.306;8.500;2022-08-02T03:14:21;5.07;;;4.60;;
9722;SDS011;4900;49.306;8.500;2022-08-02T03:17:24;6.15;;;5.03;;
9722;SDS011;4900;49.306;8.500;2022-08-02T03:20:28;5.22;;;4.72;;
9722;SDS011;4900;49.306;8.500;2022-08-02T03:23:31;5.03;;;4.53;;
9722;SDS011;4900;49.306;8.500;2022-08-02T03:26:35;4.97;;;4.05;;
9722;SDS011;4900;49.306;8.500;2022-08-02T03:29:38;4.80;;;3.88;;
9722;SDS011;4900;49.306;8.500;2022-08-02T03:32:42;4.50;;;3.75;;
9722;SDS011;4900;49.306;8.500;2022-08-02T03:35:49;4.00;;;3.70;;
9722;SDS011;4900;49.306;8.500;2022-08-02T03:38:54;4.13;;;3.72;;
9722;SDS011;4900;49.306;8.500;2022-08-02T03:41:59;4.32;;;3.92;;
9722;SDS011;4900;49.306;8.500;2022-08-02T03:45:03;4.70;;;4.25;;
9722;SDS011;4900;49.306;8.500;2022-08-02T03:48:09;4.13;;;3.70;;
9722;SDS011;4900;49.306;8.500;2022-08-02T03:51:13;4.28;;;3.80;;
9722;SDS011;4900;49.306;8.500;2022-08-02T03:54:17;7.38;;;6.68;;
9722;SDS011;4900;49.306;8.500;2022-08-02T03:57:20;9.52;;;8.60;;
9722;SDS011;4900;49.306;8.500;2022-08-02T04:00:24;6.40;;;5.82;;
9722;SDS011;4900;49.306;8.500;2022-08-02T04:03:27;6.00;;;4.75;;
9722;SDS011;4900;49.306;8.500;2022-08-02T04:06:30;4.85;;;4.28;;
9722;SDS011;4900;49.306;8.500;2022-08-02T04:09:33;4.22;;;3.80;;
9722;SDS011;4900;49.306;8.500;2022-08-02T04:12:36;5.25;;;4.30;;
9722;SDS011;4900;49.306;8.500;2022-08-02T04:15:40;5.10;;;4.15;;
9722;SDS011;4900;49.306;8.500;2022-08-02T04:18:53;4.97;;;4.00;;
9722;SDS011;4900;49.306;8.500;2022-08-02T04:21:59;7.78;;;4.78;;
9722;SDS011;4900;49.306;8.500;2022-08-02T04:25:06;4.28;;;3.83;;
9722;SDS011;4900;49.306;8.500;2022-08-02T04:28:12;4.55;;;4.15;;
9722;SDS011;4900;49.306;8.500;2022-08-02T04:31:17;5.18;;;4.00;;
9722;SDS011;4900;49.306;8.500;2022-08-02T04:34:21;4.82;;;4.32;;
9722;SDS011;4900;49.306;8.500;2022-08-02T04:37:25;8.70;;;4.75;;
9722;SDS011;4900;49.306;8.500;2022-08-02T04:40:28;5.38;;;4.00;;
9722;SDS011;4900;49.306;8.500;2022-08-02T04:43:32;5.95;;;4.75;;
9722;SDS011;4900;49.306;8.500;2022-08-02T04:46:36;6.18;;;4.45;;
9722;SDS011;4900;49.306;8.500;2022-08-02T04:49:39;6.18;;;4.18;;
9722;SDS011;4900;49.306;8.500;2022-08-02T04:52:43;5.93;;;4.53;;
9722;SDS011;4900;49.306;8.500;2022-08-02T04:55:45;5.25;;;4.45;;
9722;SDS011;4900;49.306;8.500;2022-08-02T04:58:49;4.63;;;4.10;;
9722;SDS011;4900;49.306;8.500;2022-08-02T05:01:52;5.07;;;4.57;;
9722;SDS011;4900;49.306;8.500;2022-08-02T05:04:55;4.47;;;4.13;;
9722;SDS011;4900;49.306;8.500;2022-08-02T05:08:17;10.98;;;6.07;;
9722;SDS011;4900;49.306;8.500;2022-08-02T05:11:20;6.78;;;5.90;;
9722;SDS011;4900;49.306;8.500;2022-08-02T05:14:24;6.85;;;5.40;;
9722;SDS011;4900;49.306;8.500;2022-08-02T05:17:28;5.55;;;5.00;;
9722;SDS011;4900;49.306;8.500;2022-08-02T05:20:31;7.55;;;4.50;;
9722;SDS011;4900;49.306;8.500;2022-08-02T05:23:34;5.80;;;4.90;;
9722;SDS011;4900;49.306;8.500;2022-08-02T05:26:37;5.28;;;4.78;;
9722;SDS011;4900;49.306;8.500;2022-08-02T05:29:40;5.07;;;4.60;;
9722;SDS011;4900;49.306;8.500;2022-08-02T05:32:47;7.28;;;5.10;;
9722;SDS011;4900;49.306;8.500;2022-08-02T05:35:54;7.85;;;5.00;;
9722;SDS011;4900;49.306;8.500;2022-08-02T05:38:57;4.65;;;4.10;;
9722;SDS011;4900;49.306;8.500;2022-08-02T05:42:00;4.75;;;4.10;;
9722;SDS011;4900;49.306;8.500;2022-08-02T05:45:04;4.78;;;4.28;;
9722;SDS011;4900;49.306;8.500;2022-08-02T05:48:08;6.30;;;5.30;;
9722;SDS011;4900;49.306;8.500;2022-08-02T05:51:12;7.63;;;5.10;;
9722;SDS011;4900;49.306;8.500;2022-08-02T05:54:42;5.82;;;4.40;;
9722;SDS011;4900;49.306;8.500;2022-08-02T06:00:54;6.30;;;5.50;;
9722;SDS011;4900;49.306;8.500;2022-08-02T06:03:58;6.35;;;5.72;;
9722;SDS011;4900;49.306;8.500;2022-08-02T06:07:02;6.68;;;5.50;;
9722;SDS011;4900;49.306;8.500;2022-08-02T06:10:09;6.00;;;5.50;;
9722;SDS011;4900;49.306;8.500;2022-08-02T06:13:16;6.32;;;4.38;;
9722;SDS011;4900;49.306;8.500;2022-08-02T06:16:21;4.63;;;4.18;;
9722;SDS011;4900;49.306;8.500;2022-08-02T06:19:28;4.10;;;3.70;;
9722;SDS011;4900;49.306;8.500;2022-08-02T06:22:31;4.80;;;4.30;;
9722;SDS011;4900;49.306;8.500;2022-08-02T06:25:36;4.93;;;4.53;;
9722;SDS011;4900;49.306;8.500;2022-08-02T06:28:42;4.30;;;3.90;;
9722;SDS011;4900;49.306;8.500;2022-08-02T06:31:47;4.15;;;3.85;;
9722;SDS011;4900;49.306;8.500;2022-08-02T06:34:54;5.90;;;4.10;;
9722;SDS011;4900;49.306;8.500;2022-08-02T06:38:00;4.03;;;3.72;;
9722;SDS011;4900;49.306;8.500;2022-08-02T06:41:08;4.70;;;4.30;;
9722;SDS011;4900;49.306;8.500;2022-08-02T06:44:14;4.35;;;3.83;;
9722;SDS011;4900;49.306;8.500;2022-08-02T06:47:17;4.10;;;3.75;;
9722;SDS011;4900;49.306;8.500;2022-08-02T06:50:21;3.78;;;3.47;;
9722;SDS011;4900;49.306;8.500;2022-08-02T06:53:24;3.88;;;3.45;;
9722;SDS011;4900;49.306;8.500;2022-08-02T06:56:28;5.45;;;3.08;;
9722;SDS011;4900;49.306;8.500;2022-08-02T06:59:31;5.45;;;3.13;;
9722;SDS011;4900;49.306;8.500;2022-08-02T07:02:37;3.53;;;3.00;;
9722;SDS011;4900;49.306;8.500;2022-08-02T07:05:44;4.00;;;3.67;;
9722;SDS011;4900;49.306;8.500;2022-08-02T07:08:49;4.03;;;3.63;;
9722;SDS011;4900;49.306;8.500;2022-08-02T07:11:53;4.22;;;3.83;;
9722;SDS011;4900;49.306;8.500;2022-08-02T07:14:57;3.15;;;2.85;;
9722;SDS011;4900;49.306;8.500;2022-08-02T07:18:01;3.42;;;3.13;;
9722;SDS011;4900;49.306;8.500;2022-08-02T07:21:05;3.08;;;2.78;;
9722;SDS011;4900;49.306;8.500;2022-08-02T07:24:08;4.07;;;3.60;;
9722;SDS011;4900;49.306;8.500;2022-08-02T07:27:11;3.95;;;3.30;;
9722;SDS011;4900;49.306;8.500;2022-08-02T07:30:14;3.83;;;3.15;;
9722;SDS011;4900;49.306;8.500;2022-08-02T07:33:17;3.67;;;3.25;;
9722;SDS011;4900;49.306;8.500;2022-08-02T07:36:20;3.42;;;2.65;;
9722;SDS011;4900;49.306;8.500;2022-08-02T07:39:23;3.72;;;3.00;;
9722;SDS011;4900;49.306;8.500;2022-08-02T07:42:27;3.92;;;3.63;;
9722;SDS011;4900;49.306;8.500;2022-08-02T07:45:31;2.95;;;2.75;;
9722;SDS011;4900;49.306;8.500;2022-08-02T07:48:35;2.90;;;2.70;;
9722;SDS011;4900;49.306;8.500;2022-08-02T07:51:38;4.25;;;3.05;;
9722;SDS011;4900;49.306;8.500;2022-08-02T07:54:41;3.75;;;2.70;;
9722;SDS011;4900;49.306;8.500;2022-08-02T07:57:44;3.30;;;3.00;;
9722;SDS011;4900;49.306;8.500;2022-08-02T08:00:48;2.83;;;2.53;;
9722;SDS011;4900;49.306;8.500;2022-08-02T08:03:51;3.22;;;2.65;;
9722;SDS011;4900;49.306;8.500;2022-08-02T08:06:54;2.92;;;2.72;;
9722;SDS011;4900;49.306;8.500;2022-08-02T08:09:58;4.88;;;3.20;;
9722;SDS011;4900;49.306;8.500;2022-08-02T08:13:02;2.90;;;2.70;;
9722;SDS011;4900;49.306;8.500;2022-08-02T08:16:05;2.72;;;2.50;;
9722;SDS011;4900;49.306;8.500;2022-08-02T08:19:08;4.13;;;2.50;;
9722;SDS011;4900;49.306;8.500;2022-08-02T08:22:11;2.85;;;2.20;;
9722;SDS011;4900;49.306;8.500;2022-08-02T08:25:14;2.80;;;2.60;;
9722;SDS011;4900;49.306;8.500;2022-08-02T08:28:18;2.63;;;2.42;;
9722;SDS011;4900;49.306;8.500;2022-08-02T08:31:21;3.88;;;2.70;;
9722;SDS011;4900;49.306;8.500;2022-08-02T08:34:24;2.78;;;2.47;;
9722;SDS011;4900;49.306;8.500;2022-08-02T08:37:32;2.53;;;2.13;;
9722;SDS011;4900;49.306;8.500;2022-08-02T08:40:38;2.40;;;2.20;;
9722;SDS011;4900;49.306;8.500;2022-08-02T08:43:44;3.53;;;2.40;;
9722;SDS011;4900;49.306;8.500;2022-08-02T08:46:48;3.83;;;2.28;;
9722;SDS011;4900;49.306;8.500;2022-08-02T08:49:51;2.85;;;2.30;;
9722;SDS011;4900;49.306;8.500;2022-08-02T08:56:10;2.65;;;2.10;;
9722;SDS011;4900;49.306;8.500;2022-08-02T08:59:14;2.97;;;2.10;;
9722;SDS011;4900;49.306;8.500;2022-08-02T09:02:17;3.92;;;2.50;;
9722;SDS011;4900;49.306;8.500;2022-08-02T09:05:20;2.42;;;2.22;;
9722;SDS011;4900;49.306;8.500;2022-08-02T09:08:24;3.20;;;2.65;;
9722;SDS011;4900;49.306;8.500;2022-08-02T09:11:27;3.67;;;2.22;;
9722;SDS011;4900;49.306;8.500;2022-08-02T09:14:30;3.75;;;2.40;;
9722;SDS011;4900;49.306;8.500;2022-08-02T09:17:34;2.88;;;2.15;;
9722;SDS011;4900;49.306;8.500;2022-08-02T09:20:52;2.63;;;2.15;;
9722;SDS011;4900;49.306;8.500;2022-08-02T09:24:14;2.20;;;2.00;;
9722;SDS011;4900;49.306;8.500;2022-08-02T09:27:24;2.10;;;2.00;;
9722;SDS011;4900;49.306;8.500;2022-08-02T09:30:27;2.15;;;1.95;;
9722;SDS011;4900;49.306;8.500;2022-08-02T09:33:30;2.33;;;2.10;;
9722;SDS011;4900;49.306;8.500;2022-08-02T09:36:38;3.25;;;2.50;;
9722;SDS011;4900;49.306;8.500;2022-08-02T09:39:43;2.53;;;2.30;;
9722;SDS011;4900;49.306;8.500;2022-08-02T09:42:57;2.78;;;2.20;;
9722;SDS011;4900;49.306;8.500;2022-08-02T09:46:14;2.58;;;2.30;;
9722;SDS011;4900;49.306;8.500;2022-08-02T09:49:27;2.33;;;2.00;;
9722;SDS011;4900;49.306;8.500;2022-08-02T09:52:30;4.53;;;2.10;;
9722;SDS011;4900;49.306;8.500;2022-08-02T09:55:33;2.97;;;2.30;;
9722;SDS011;4900;49.306;8.500;2022-08-02T09:58:37;2.30;;;2.10;;
9722;SDS011;4900;49.306;8.500;2022-08-02T10:01:41;3.78;;;2.10;;
9722;SDS011;4900;49.306;8.500;2022-08-02T10:04:46;2.88;;;2.08;;
9722;SDS011;4900;49.306;8.500;2022-08-02T10:07:49;1.95;;;1.77;;
9722;SDS011;4900;49.306;8.500;2022-08-02T10:10:52;2.70;;;2.13;;
9722;SDS011;4900;49.306;8.500;2022-08-02T10:14:02;2.17;;;2.00;;
9722;SDS011;4900;49.306;8.500;2022-08-02T10:17:06;1.83;;;1.73;;
9722;SDS011;4900;49.306;8.500;2022-08-02T10:20:10;1.90;;;1.80;;
9722;SDS011;4900;49.306;8.500;2022-08-02T10:23:13;3.00;;;2.00;;
9722;SDS011;4900;49.306;8.500;2022-08-02T10:26:18;3.75;;;1.98;;
9722;SDS011;4900;49.306;8.500;2022-08-02T10:29:23;2.35;;;1.98;;
9722;SDS011;4900;49.306;8.500;2022-08-02T10:32:38;2.88;;;1.90;;
9722;SDS011;4900;49.306;8.500;2022-08-02T10:35:49;2.13;;;1.92;;
9722;SDS011;4900;49.306;8.500;2022-08-02T10:38:54;2.00;;;1.80;;
9722;SDS011;4900;49.306;8.500;2022-08-02T10:42:00;2.33;;;1.83;;
9722;SDS011;4900;49.306;8.500;2022-08-02T10:45:09;1.92;;;1.73;;
9722;SDS011;4900;49.306;8.500;2022-08-02T10:48:13;3.22;;;1.88;;
9722;SDS011;4900;49.306;8.500;2022-08-02T10:51:16;2.58;;;1.88;;
9722;SDS011;4900;49.306;8.500;2022-08-02T10:54:20;1.83;;;1.73;;
9722;SDS011;4900;49.306;8.500;2022-08-02T10:57:25;1.80;;;1.70;;
9722;SDS011;4900;49.306;8.500;2022-08-02T11:00:29;1.80;;;1.70;;
9722;SDS011;4900;49.306;8.500;2022-08-02T11:03:39;1.75;;;1.65;;
9722;SDS011;4900;49.306;8.500;2022-08-02T11:13:27;1.60;;;1.50;;
9722;SDS011;4900;49.306;8.500;2022-08-02T11:29:39;1.50;;;1.40;;
9722;SDS011;4900;49.306;8.500;2022-08-02T11:32:44;1.60;;;1.50;;
9722;SDS011;4900;49.306;8.500;2022-08-02T11:35:48;2.10;;;1.63;;
9722;SDS011;4900;49.306;8.500;2022-08-02T11:39:07;1.85;;;1.42;;
9722;SDS011;4900;49.306;8.500;2022-08-02T11:42:17;1.50;;;1.40;;
9722;SDS011;4900;49.306;8.500;2022-08-02T11:45:23;1.80;;;1.50;;
9722;SDS011;4900;49.306;8.500;2022-08-02T11:51:34;1.52;;;1.33;;
9722;SDS011;4900;49.306;8.500;2022-08-02T11:54:39;1.40;;;1.30;;
9722;SDS011;4900;49.306;8.500;2022-08-02T11:57:43;1.98;;;1.60;;
9722;SDS011;4900;49.306;8.500;2022-08-02T12:00:50;1.92;;;1.40;;
9722;SDS011;4900;49.306;8.500;2022-08-02T12:03:55;1.55;;;1.45;;
9722;SDS011;4900;49.306;8.500;2022-08-02T12:07:03;1.80;;;1.70;;
9722;SDS011;4900;49.306;8.500;2022-08-02T12:10:08;2.05;;;1.70;;
9722;SDS011;4900;49.306;8.500;2022-08-02T12:13:13;1.90;;;1.70;;
9722;SDS011;4900;49.306;8.500;2022-08-02T12:16:16;1.80;;;1.70;;
9722;SDS011;4900;49.306;8.500;2022-08-02T12:19:38;1.60;;;1.50;;
9722;SDS011;4900;49.306;8.500;2022-08-02T12:22:43;1.85;;;1.50;;
9722;SDS011;4900;49.306;8.500;2022-08-02T12:26:06;2.60;;;1.67;;
9722;SDS011;4900;49.306;8.500;2022-08-02T12:29:10;3.05;;;1.70;;
9722;SDS011;4900;49.306;8.500;2022-08-02T12:32:16;2.05;;;1.90;;
9722;SDS011;4900;49.306;8.500;2022-08-02T12:35:29;2.33;;;1.90;;
9722;SDS011;4900;49.306;8.500;2022-08-02T12:38:32;1.90;;;1.80;;
9722;SDS011;4900;49.306;8.500;2022-08-02T12:41:35;1.90;;;1.80;;
9722;SDS011;4900;49.306;8.500;2022-08-02T12:44:52;1.80;;;1.70;;
9722;SDS011;4900;49.306;8.500;2022-08-02T12:48:02;2.40;;;1.80;;
9722;SDS011;4900;49.306;8.500;2022-08-02T12:51:22;1.88;;;1.77;;
9722;SDS011;4900;49.306;8.500;2022-08-02T12:54:34;2.28;;;2.00;;
9722;SDS011;4900;49.306;8.500;2022-08-02T12:57:57;2.78;;;1.75;;
9722;SDS011;4900;49.306;8.500;2022-08-02T13:01:01;2.30;;;1.80;;
9722;SDS011;4900;49.306;8.500;2022-08-02T13:04:04;2.55;;;1.85;;
9722;SDS011;4900;49.306;8.500;2022-08-02T13:07:08;3.85;;;2.00;;
9722;SDS011;4900;49.306;8.500;2022-08-02T13:10:11;2.67;;;1.90;;
9722;SDS011;4900;49.306;8.500;2022-08-02T13:13:14;3.78;;;1.90;;
9722;SDS011;4900;49.306;8.500;2022-08-02T13:16:17;2.15;;;1.80;;
9722;SDS011;4900;49.306;8.500;2022-08-02T13:19:20;2.67;;;1.70;;
9722;SDS011;4900;49.306;8.500;2022-08-02T13:22:23;1.60;;;1.50;;
9722;SDS011;4900;49.306;8.500;2022-08-02T13:25:27;2.20;;;1.90;;
9722;SDS011;4900;49.306;8.500;2022-08-02T13:28:30;2.08;;;1.90;;
9722;SDS011;4900;49.306;8.500;2022-08-02T13:31:32;2.97;;;1.92;;
9722;SDS011;4900;49.306;8.500;2022-08-02T13:34:38;2.20;;;1.88;;
9722;SDS011;4900;49.306;8.500;2022-08-02T13:37:42;3.28;;;2.03;;
9722;SDS011;4900;49.306;8.500;2022-08-02T13:40:46;2.88;;;1.90;;
9722;SDS011;4900;49.306;8.500;2022-08-02T13:44:08;1.90;;;1.80;;
9722;SDS011;4900;49.306;8.500;2022-08-02T13:47:11;2.53;;;1.80;;
9722;SDS011;4900;49.306;8.500;2022-08-02T13:50:14;2.05;;;1.80;;
9722;SDS011;4900;49.306;8.500;2022-08-02T13:53:18;1.85;;;1.75;;
9722;SDS011;4900;49.306;8.500;2022-08-02T13:56:21;1.80;;;1.70;;
9722;SDS011;4900;49.306;8.500;2022-08-02T13:59:24;2.83;;;1.70;;
9722;SDS011;4900;49.306;8.500;2022-08-02T14:02:28;2.28;;;1.83;;
9722;SDS011;4900;49.306;8.500;2022-08-02T14:05:31;3.05;;;1.90;;
9722;SDS011;4900;49.306;8.500;2022-08-02T14:08:38;2.00;;;1.90;;
9722;SDS011;4900;49.306;8.500;2022-08-02T14:11:42;2.22;;;1.92;;
9722;SDS011;4900;49.306;8.500;2022-08-02T14:14:46;2.22;;;1.85;;
9722;SDS011;4900;49.306;8.500;2022-08-02T14:17:49;2.10;;;1.90;;
9722;SDS011;4900;49.306;8.500;2022-08-02T14:20:52;2.92;;;1.92;;
9722;SDS011;4900;49.306;8.500;2022-08-02T14:23:55;1.98;;;1.80;;
9722;SDS011;4900;49.306;8.500;2022-08-02T14:26:58;1.80;;;1.70;;
9722;SDS011;4900;49.306;8.500;2022-08-02T14:30:01;2.72;;;1.80;;
9722;SDS011;4900;49.306;8.500;2022-08-02T14:33:05;1.80;;;1.70;;
9722;SDS011;4900;49.306;8.500;2022-08-02T14:36:08;2.05;;;1.60;;
9722;SDS011;4900;49.306;8.500;2022-08-02T14:39:11;2.00;;;1.80;;
9722;SDS011;4900;49.306;8.500;2022-08-02T14:42:14;2.25;;;1.77;;
9722;SDS011;4900;49.306;8.500;2022-08-02T14:45:18;2.30;;;1.63;;
9722;SDS011;4900;49.306;8.500;2022-08-02T14:48:23;3.17;;;2.00;;
9722;SDS011;4900;49.306;8.500;2022-08-02T14:51:27;1.95;;;1.60;;
9722;SDS011;4900;49.306;8.500;2022-08-02T14:54:31;2.00;;;1.60;;
9722;SDS011;4900;49.306;8.500;2022-08-02T14:57:35;4.03;;;1.80;;
9722;SDS011;4900;49.306;8.500;2022-08-02T15:00:38;2.22;;;1.80;;
9722;SDS011;4900;49.306;8.500;2022-08-02T15:03:41;1.80;;;1.67;;
9722;SDS011;4900;49.306;8.500;2022-08-02T15:06:44;2.20;;;1.60;;
9722;SDS011;4900;49.306;8.500;2022-08-02T15:09:47;2.65;;;1.80;;
9722;SDS011;4900;49.306;8.500;2022-08-02T15:12:51;2.47;;;1.80;;
9722;SDS011;4900;49.306;8.500;2022-08-02T15:15:53;3.40;;;1.77;;
9722;SDS011;4900;49.306;8.500;2022-08-02T15:18:56;1.90;;;1.70;;
9722;SDS011;4900;49.306;8.500;2022-08-02T15:22:00;1.90;;;1.70;;
9722;SDS011;4900;49.306;8.500;2022-08-02T15:25:03;1.98;;;1.75;;
9722;SDS011;4900;49.306;8.500;2022-08-02T15:28:07;2.03;;;1.80;;
9722;SDS011;4900;49.306;8.500;2022-08-02T15:31:11;2.08;;;1.90;;
9722;SDS011;4900;49.306;8.500;2022-08-02T15:34:15;1.98;;;1.75;;
9722;SDS011;4900;49.306;8.500;2022-08-02T15:37:18;1.80;;;1.70;;
9722;SDS011;4900;49.306;8.500;2022-08-02T15:40:21;2.22;;;1.80;;
9722;SDS011;4900;49.306;8.500;2022-08-02T15:43:24;1.98;;;1.77;;
9722;SDS011;4900;49.306;8.500;2022-08-02T15:46:28;2.75;;;1.85;;
9722;SDS011;4900;49.306;8.500;2022-08-02T15:49:30;2.80;;;1.70;;
9722;SDS011;4900;49.306;8.500;2022-08-02T15:52:33;2.10;;;1.80;;
9722;SDS011;4900;49.306;8.500;2022-08-02T15:55:37;2.75;;;1.80;;
9722;SDS011;4900;49.306;8.500;2022-08-02T15:58:42;1.77;;;1.67;;
9722;SDS011;4900;49.306;8.500;2022-08-02T16:01:45;1.75;;;1.65;;
9722;SDS011;4900;49.306;8.500;2022-08-02T16:04:51;2.50;;;1.90;;
9722;SDS011;4900;49.306;8.500;2022-08-02T16:07:54;2.00;;;1.80;;
9722;SDS011;4900;49.306;8.500;2022-08-02T16:10:57;1.90;;;1.80;;
9722;SDS011;4900;49.306;8.500;2022-08-02T16:14:00;3.00;;;1.75;;
9722;SDS011;4900;49.306;8.500;2022-08-02T16:17:03;2.00;;;1.90;;
9722;SDS011;4900;49.306;8.500;2022-08-02T16:20:06;3.80;;;1.70;;
9722;SDS011;4900;49.306;8.500;2022-08-02T16:23:10;2.15;;;1.70;;
9722;SDS011;4900;49.306;8.500;2022-08-02T16:26:12;1.70;;;1.60;;
9722;SDS011;4900;49.306;8.500;2022-08-02T16:29:15;2.33;;;1.73;;
9722;SDS011;4900;49.306;8.500;2022-08-02T16:32:19;1.83;;;1.67;;
9722;SDS011;4900;49.306;8.500;2022-08-02T16:35:22;1.90;;;1.80;;
9722;SDS011;4900;49.306;8.500;2022-08-02T16:38:25;2.08;;;1.88;;
9722;SDS011;4900;49.306;8.500;2022-08-02T16:41:28;2.00;;;1.67;;
9722;SDS011;4900;49.306;8.500;2022-08-02T16:44:32;2.28;;;1.65;;
9722;SDS011;4900;49.306;8.500;2022-08-02T16:47:36;3.20;;;1.58;;
9722;SDS011;4900;49.306;8.500;2022-08-02T16:50:39;1.83;;;1.73;;
9722;SDS011;4900;49.306;8.500;2022-08-02T16:53:42;1.98;;;1.70;;
9722;SDS011;4900;49.306;8.500;2022-08-02T16:56:45;2.33;;;1.80;;
9722;SDS011;4900;49.306;8.500;2022-08-02T16:59:48;1.90;;;1.70;;
9722;SDS011;4900;49.306;8.500;2022-08-02T17:02:51;1.95;;;1.50;;
9722;SDS011;4900;49.306;8.500;2022-08-02T17:05:54;1.88;;;1.77;;
9722;SDS011;4900;49.306;8.500;2022-08-02T17:08:57;1.92;;;1.60;;
9722;SDS011;4900;49.306;8.500;2022-08-02T17:12:01;2.10;;;1.70;;
9722;SDS011;4900;49.306;8.500;2022-08-02T17:15:04;2.00;;;1.70;;
9722;SDS011;4900;49.306;8.500;2022-08-02T17:18:09;2.03;;;1.73;;
9722;SDS011;4900;49.306;8.500;2022-08-02T17:21:12;4.18;;;1.90;;
9722;SDS011;4900;49.306;8.500;2022-08-02T17:24:15;1.90;;;1.80;;
9722;SDS011;4900;49.306;8.500;2022-08-02T17:27:18;1.85;;;1.70;;
9722;SDS011;4900;49.306;8.500;2022-08-02T17:30:21;1.98;;;1.80;;
9722;SDS011;4900;49.306;8.500;2022-08-02T17:33:24;1.80;;;1.65;;
9722;SDS011;4900;49.306;8.500;2022-08-02T17:36:27;2.22;;;1.90;;
9722;SDS011;4900;49.306;8.500;2022-08-02T17:39:30;1.77;;;1.67;;
9722;SDS011;4900;49.306;8.500;2022-08-02T17:42:33;1.90;;;1.80;;
9722;SDS011;4900;49.306;8.500;2022-08-02T17:45:37;2.28;;;1.70;;
9722;SDS011;4900;49.306;8.500;2022-08-02T17:48:40;2.75;;;1.80;;
9722;SDS011;4900;49.306;8.500;2022-08-02T17:52:02;2.25;;;2.05;;
9722;SDS011;4900;49.306;8.500;2022-08-02T17:55:05;2.58;;;1.85;;
9722;SDS011;4900;49.306;8.500;2022-08-02T17:58:09;2.70;;;1.70;;
9722;SDS011;4900;49.306;8.500;2022-08-02T18:01:13;1.95;;;1.77;;
9722;SDS011;4900;49.306;8.500;2022-08-02T18:04:16;1.83;;;1.73;;
9722;SDS011;4900;49.306;8.500;2022-08-02T18:07:20;2.35;;;2.05;;
9722;SDS011;4900;49.306;8.500;2022-08-02T18:10:23;3.25;;;2.20;;
9722;SDS011;4900;49.306;8.500;2022-08-02T18:13:27;4.38;;;2.60;;
9722;SDS011;4900;49.306;8.500;2022-08-02T18:16:29;3.13;;;2.38;;
9722;SDS011;4900;49.306;8.500;2022-08-02T18:19:32;3.55;;;2.10;;
9722;SDS011;4900;49.306;8.500;2022-08-02T18:22:35;3.40;;;1.95;;
9722;SDS011;4900;49.306;8.500;2022-08-02T18:25:38;4.95;;;2.30;;
9722;SDS011;4900;49.306;8.500;2022-08-02T18:28:41;2.25;;;1.98;;
9722;SDS011;4900;49.306;8.500;2022-08-02T18:31:44;3.67;;;1.92;;
9722;SDS011;4900;49.306;8.500;2022-08-02T18:34:47;2.20;;;2.00;;
9722;SDS011;4900;49.306;8.500;2022-08-02T18:37:50;2.10;;;1.90;;
9722;SDS011;4900;49.306;8.500;2022-08-02T18:40:54;3.15;;;1.98;;
9722;SDS011;4900;49.306;8.500;2022-08-02T18:43:57;2.28;;;1.80;;
9722;SDS011;4900;49.306;8.500;2022-08-02T18:47:00;3.60;;;1.90;;
9722;SDS011;4900;49.306;8.500;2022-08-02T18:50:03;3.50;;;1.98;;
9722;SDS011;4900;49.306;8.500;2022-08-02T18:53:06;3.03;;;2.00;;
9722;SDS011;4900;49.306;8.500;2022-08-02T18:56:10;3.70;;;1.98;;
9722;SDS011;4900;49.306;8.500;2022-08-02T18:59:14;2.40;;;2.20;;
9722;SDS011;4900;49.306;8.500;2022-08-02T19:02:18;2.65;;;2.00;;
9722;SDS011;4900;49.306;8.500;2022-08-02T19:05:21;3.13;;;2.03;;
9722;SDS011;4900;49.306;8.500;2022-08-02T19:08:24;4.32;;;1.95;;
9722;SDS011;4900;49.306;8.500;2022-08-02T19:11:27;2.40;;;1.90;;
9722;SDS011;4900;49.306;8.500;2022-08-02T19:14:30;2.85;;;2.10;;
9722;SDS011;4900;49.306;8.500;2022-08-02T19:17:33;4.28;;;1.90;;
9722;SDS011;4900;49.306;8.500;2022-08-02T19:20:37;3.30;;;2.05;;
9722;SDS011;4900;49.306;8.500;2022-08-02T19:23:40;10.50;;;3.33;;
9722;SDS011;4900;49.306;8.500;2022-08-02T19:26:43;12.13;;;3.35;;
9722;SDS011;4900;49.306;8.500;2022-08-02T19:29:46;12.15;;;3.03;;
9722;SDS011;4900;49.306;8.500;2022-08-02T19:32:49;8.82;;;3.22;;
9722;SDS011;4900;49.306;8.500;2022-08-02T19:35:52;15.18;;;4.05;;
9722;SDS011;4900;49.306;8.500;2022-08-02T19:38:56;16.83;;;4.00;;
9722;SDS011;4900;49.306;8.500;2022-08-02T19:41:59;11.35;;;3.70;;
9722;SDS011;4900;49.306;8.500;2022-08-02T19:45:02;14.90;;;3.45;;